Time;durP1;ratioP1;P1;durP2;ratioP2;P2;SDS_P1;SDS_P2;PMS_P1;PMS_P2;Temp;Humidity;BMP_temperature;BMP_pressure;BME280_temperature;BME280_humidity;BME280_pressure;Samples;Min_cycle;Max_cycle;Signal;HPM_P1;HPM_P2
2023/12/03 00:01:17;;;;;;;14.93;13.32;;;0.70;99.90;;;;;;5023576;28;20427;-72
2023/12/03 00:03:44;;;;;;;14.77;13.00;;;0.80;99.90;;;;;;5025440;28;20419;-72
2023/12/03 00:06:10;;;;;;;17.88;13.52;;;0.80;99.90;;;;;;5024072;28;20953;-71
2023/12/03 00:08:37;;;;;;;16.85;12.70;;;0.80;99.90;;;;;;5025561;28;20411;-72
2023/12/03 00:11:04;;;;;;;17.73;14.43;;;0.80;99.90;;;;;;5024504;28;20422;-72
2023/12/03 00:13:31;;;;;;;16.97;13.17;;;0.80;99.90;;;;;;5024100;28;20415;-72
2023/12/03 00:15:59;;;;;;;17.73;14.82;;;0.80;99.90;;;;;;5025654;28;20425;-72
2023/12/03 00:18:26;;;;;;;16.25;14.20;;;0.80;99.90;;;;;;5024697;28;20423;-72
2023/12/03 00:20:53;;;;;;;16.90;13.80;;;0.80;99.90;;;;;;5025069;28;20443;-72
2023/12/03 00:23:20;;;;;;;18.73;15.02;;;0.70;99.90;;;;;;5029149;28;20415;-71
2023/12/03 00:25:46;;;;;;;17.27;13.88;;;0.70;99.90;;;;;;5028242;28;20429;-72
2023/12/03 00:28:13;;;;;;;19.88;14.68;;;0.70;99.90;;;;;;5021618;28;20464;-72
2023/12/03 00:30:40;;;;;;;18.30;14.20;;;0.70;99.90;;;;;;5022128;28;20794;-71
2023/12/03 00:33:08;;;;;;;18.20;14.43;;;0.70;99.90;;;;;;5025666;28;20482;-72
2023/12/03 00:35:35;;;;;;;16.83;13.30;;;0.70;99.90;;;;;;5024465;28;20419;-72
2023/12/03 00:38:01;;;;;;;15.88;12.73;;;0.70;99.90;;;;;;5024828;28;20419;-71
2023/12/03 00:40:28;;;;;;;14.10;12.57;;;0.70;99.90;;;;;;5024725;28;20897;-71
2023/12/03 00:42:55;;;;;;;15.65;12.93;;;0.80;99.90;;;;;;5023642;28;20471;-71
2023/12/03 00:45:22;;;;;;;16.75;13.10;;;0.80;99.90;;;;;;5023947;28;20415;-72
2023/12/03 00:47:48;;;;;;;19.10;14.60;;;0.80;99.90;;;;;;5021108;28;20422;-72
2023/12/03 00:50:17;;;;;;;19.30;15.00;;;0.80;99.90;;;;;;5024615;28;20506;-72
2023/12/03 00:52:44;;;;;;;17.80;13.83;;;0.80;99.90;;;;;;5024525;28;20447;-71
2023/12/03 00:55:10;;;;;;;17.23;13.60;;;0.80;99.90;;;;;;5023723;28;20533;-72
2023/12/03 00:57:37;;;;;;;16.50;12.98;;;0.80;99.90;;;;;;5022038;28;20453;-72
2023/12/03 01:00:05;;;;;;;16.63;13.38;;;0.80;99.90;;;;;;5023550;28;20438;-72
2023/12/03 01:02:34;;;;;;;16.48;13.88;;;0.80;99.90;;;;;;5020635;28;20423;-72
2023/12/03 01:05:00;;;;;;;17.17;14.90;;;0.80;99.90;;;;;;5022641;28;20415;-72
2023/12/03 01:07:28;;;;;;;16.60;13.18;;;0.80;99.90;;;;;;5035023;28;20441;-71
2023/12/03 01:09:55;;;;;;;15.95;13.70;;;0.80;99.90;;;;;;5027004;28;20471;-72
2023/12/03 01:12:22;;;;;;;17.20;13.90;;;0.80;99.90;;;;;;5021954;28;20438;-72
2023/12/03 01:14:49;;;;;;;16.42;14.32;;;0.80;99.90;;;;;;5025028;28;20411;-72
2023/12/03 01:17:16;;;;;;;15.18;13.57;;;0.70;99.90;;;;;;5026209;28;20418;-71
2023/12/03 01:19:42;;;;;;;16.05;13.95;;;0.70;99.90;;;;;;5024198;28;20944;-72
2023/12/03 01:22:09;;;;;;;16.63;13.70;;;0.80;99.90;;;;;;5022430;28;20419;-71
2023/12/03 01:24:37;;;;;;;15.50;13.32;;;0.80;99.90;;;;;;5024421;28;20499;-71
2023/12/03 01:27:04;;;;;;;15.60;13.80;;;0.80;99.90;;;;;;5022435;28;20449;-71
2023/12/03 01:29:31;;;;;;;16.85;14.90;;;0.80;99.90;;;;;;5029916;28;20542;-71
2023/12/03 01:31:58;;;;;;;15.88;14.18;;;0.80;99.90;;;;;;5028417;28;20437;-72
2023/12/03 01:34:24;;;;;;;15.45;13.10;;;0.80;99.90;;;;;;5024778;28;20496;-72
2023/12/03 01:36:51;;;;;;;15.20;13.40;;;0.80;99.90;;;;;;5024650;28;20422;-71
2023/12/03 01:39:18;;;;;;;17.42;13.40;;;0.80;99.90;;;;;;5023099;28;20411;-71
2023/12/03 01:41:46;;;;;;;14.57;13.07;;;0.70;99.90;;;;;;5023677;28;20430;-71
2023/12/03 01:44:13;;;;;;;17.77;13.43;;;0.80;99.90;;;;;;5023991;28;20437;-71
2023/12/03 01:46:39;;;;;;;14.70;13.20;;;0.70;99.90;;;;;;5028080;28;20430;-72
2023/12/03 01:49:06;;;;;;;15.00;13.32;;;0.70;99.90;;;;;;5028601;28;20422;-71
2023/12/03 01:51:34;;;;;;;14.80;12.77;;;0.70;99.90;;;;;;5029082;28;20855;-72
2023/12/03 01:54:01;;;;;;;15.00;12.37;;;0.70;99.90;;;;;;5029081;28;20415;-72
2023/12/03 01:56:28;;;;;;;14.90;13.27;;;0.70;99.90;;;;;;5026255;28;20541;-71
2023/12/03 01:58:57;;;;;;;14.93;13.27;;;0.70;99.90;;;;;;5029596;28;20441;-72
2023/12/03 02:01:24;;;;;;;13.90;12.35;;;0.70;99.90;;;;;;5036120;28;20439;-71
2023/12/03 02:03:51;;;;;;;14.77;12.50;;;0.70;99.90;;;;;;5038788;28;20434;-73
2023/12/03 02:06:17;;;;;;;14.27;12.77;;;0.70;99.90;;;;;;5039907;28;20497;-72
2023/12/03 02:08:44;;;;;;;15.50;12.98;;;0.80;99.90;;;;;;5047981;28;20414;-71
2023/12/03 02:11:11;;;;;;;13.80;12.30;;;0.80;99.90;;;;;;5044254;28;20658;-71
2023/12/03 02:13:39;;;;;;;13.80;12.15;;;0.80;99.90;;;;;;5030011;28;20450;-71
2023/12/03 02:16:08;;;;;;;14.00;12.30;;;0.70;99.90;;;;;;5030170;28;20880;-72
2023/12/03 02:18:35;;;;;;;13.68;12.20;;;0.70;99.90;;;;;;5026660;28;21204;-72
2023/12/03 02:21:02;;;;;;;14.05;12.32;;;0.70;99.90;;;;;;5031280;28;20900;-72
2023/12/03 02:23:31;;;;;;;13.93;11.63;;;0.70;99.90;;;;;;5029706;28;20900;-72
2023/12/03 02:25:57;;;;;;;15.33;12.20;;;0.70;99.90;;;;;;5034277;28;20522;-71
2023/12/03 02:28:24;;;;;;;15.38;12.15;;;0.70;99.90;;;;;;5044026;28;20489;-71
2023/12/03 02:30:51;;;;;;;16.27;13.50;;;0.60;99.90;;;;;;5040893;28;20471;-75
2023/12/03 02:33:18;;;;;;;15.15;12.50;;;0.60;99.90;;;;;;5030965;28;20419;-71
2023/12/03 02:35:45;;;;;;;16.00;12.63;;;0.60;99.90;;;;;;5029152;28;20474;-71
2023/12/03 02:38:11;;;;;;;13.13;11.60;;;0.60;99.90;;;;;;5030838;28;20521;-71
2023/12/03 02:40:40;;;;;;;13.77;11.80;;;0.50;99.90;;;;;;5041125;28;20796;-71
2023/12/03 02:43:07;;;;;;;14.40;12.05;;;0.50;99.90;;;;;;5039751;28;20447;-72
2023/12/03 02:45:33;;;;;;;14.30;12.23;;;0.50;99.90;;;;;;5040382;28;20847;-71
2023/12/03 02:48:00;;;;;;;13.68;12.00;;;0.50;99.90;;;;;;5045432;28;20415;-71
2023/12/03 02:50:27;;;;;;;13.50;11.15;;;0.40;99.90;;;;;;5045055;28;20823;-71
2023/12/03 02:52:54;;;;;;;14.93;12.40;;;0.40;99.90;;;;;;5043376;28;20466;-71
2023/12/03 02:55:20;;;;;;;13.48;12.07;;;0.40;99.90;;;;;;5033865;28;20431;-71
2023/12/03 02:57:48;;;;;;;14.52;12.52;;;0.40;99.90;;;;;;5029596;28;20900;-71
2023/12/03 03:00:16;;;;;;;14.30;12.13;;;0.40;99.90;;;;;;5025894;28;20423;-71
2023/12/03 03:02:43;;;;;;;13.73;11.77;;;0.40;99.90;;;;;;5025316;28;20506;-71
2023/12/03 03:05:10;;;;;;;14.70;13.10;;;0.40;99.90;;;;;;5025046;28;20460;-72
2023/12/03 03:07:36;;;;;;;13.60;12.20;;;0.40;99.90;;;;;;5024572;28;20447;-72
2023/12/03 03:10:03;;;;;;;14.75;12.05;;;0.40;99.90;;;;;;5023802;28;20435;-71
2023/12/03 03:12:30;;;;;;;14.43;12.35;;;0.40;99.90;;;;;;5024754;28;20869;-71
2023/12/03 03:14:58;;;;;;;13.23;11.60;;;0.40;99.90;;;;;;5023952;28;20442;-72
2023/12/03 03:17:25;;;;;;;14.70;12.40;;;0.40;99.90;;;;;;5025455;28;20419;-71
2023/12/03 03:19:53;;;;;;;15.75;12.95;;;0.40;99.90;;;;;;5025716;28;20411;-71
2023/12/03 03:22:19;;;;;;;14.63;12.57;;;0.40;99.90;;;;;;5025746;28;20443;-71
2023/12/03 03:24:46;;;;;;;15.13;12.90;;;0.40;99.90;;;;;;5023198;28;20464;-72
2023/12/03 03:27:13;;;;;;;14.77;11.98;;;0.40;99.90;;;;;;5024132;28;20602;-72
2023/12/03 03:29:39;;;;;;;14.10;11.98;;;0.40;99.90;;;;;;5024563;28;20441;-71
2023/12/03 03:32:08;;;;;;;15.47;12.60;;;0.40;99.90;;;;;;5024041;28;20415;-71
2023/12/03 03:34:34;;;;;;;14.73;12.35;;;0.40;99.90;;;;;;5023009;28;20450;-71
2023/12/03 03:37:01;;;;;;;12.32;10.98;;;0.40;99.90;;;;;;5023070;28;21010;-71
2023/12/03 03:39:28;;;;;;;14.48;11.45;;;0.40;99.90;;;;;;5022765;28;20510;-71
2023/12/03 03:41:54;;;;;;;14.93;11.40;;;0.40;99.90;;;;;;5025216;28;20431;-71
2023/12/03 03:44:22;;;;;;;12.63;10.80;;;0.30;99.90;;;;;;5022810;28;20415;-71
2023/12/03 03:46:49;;;;;;;16.33;12.13;;;0.30;99.90;;;;;;5025398;28;20547;-71
2023/12/03 03:49:17;;;;;;;13.25;11.18;;;0.30;99.90;;;;;;5023281;28;20527;-71
2023/12/03 03:51:44;;;;;;;13.70;11.60;;;0.30;99.90;;;;;;5024398;28;20866;-71
2023/12/03 03:54:10;;;;;;;14.20;11.35;;;0.30;99.90;;;;;;5024552;28;20514;-71
2023/12/03 03:56:37;;;;;;;12.98;10.85;;;0.20;99.90;;;;;;5024561;28;20782;-72
2023/12/03 03:59:04;;;;;;;13.70;10.60;;;0.20;99.90;;;;;;5025232;28;20476;-71
2023/12/03 04:01:30;;;;;;;12.48;11.00;;;0.20;99.90;;;;;;5024601;28;20426;-71
2023/12/03 04:03:57;;;;;;;13.50;10.90;;;0.30;99.90;;;;;;5023794;28;20506;-71
2023/12/03 04:06:25;;;;;;;12.48;11.00;;;0.30;99.90;;;;;;5021610;28;20430;-71
2023/12/03 04:08:52;;;;;;;13.10;10.73;;;0.30;99.90;;;;;;5023066;28;20431;-72
2023/12/03 04:11:19;;;;;;;12.05;10.55;;;0.30;99.90;;;;;;5021871;28;20438;-71
2023/12/03 04:13:45;;;;;;;11.60;10.40;;;0.30;99.90;;;;;;5023539;28;20442;-71
2023/12/03 04:16:21;;;;;;;12.40;10.00;;;0.30;99.90;;;;;;5024363;28;20488;-71
2023/12/03 04:18:48;;;;;;;12.25;9.98;;;0.30;99.90;;;;;;5023966;28;20489;-71
2023/12/03 04:21:15;;;;;;;10.10;8.80;;;0.30;99.90;;;;;;5022681;28;20439;-71
2023/12/03 04:23:43;;;;;;;12.43;9.75;;;0.30;99.90;;;;;;5030115;28;20438;-71
2023/12/03 04:26:12;;;;;;;11.65;9.43;;;0.30;99.90;;;;;;5027945;28;20458;-71
2023/12/03 04:28:40;;;;;;;12.02;9.25;;;0.30;99.90;;;;;;5024570;28;20419;-72
2023/12/03 04:31:16;;;;;;;12.48;10.20;;;0.40;99.90;;;;;;5024424;28;20469;-71
2023/12/03 04:33:43;;;;;;;11.70;9.40;;;0.30;99.90;;;;;;5017150;28;20426;-71
2023/12/03 04:36:11;;;;;;;11.23;9.80;;;0.30;99.90;;;;;;5023332;28;20415;-72
2023/12/03 04:38:38;;;;;;;9.88;8.88;;;0.30;99.90;;;;;;5023275;28;20452;-72
2023/12/03 04:41:06;;;;;;;13.18;9.95;;;0.30;99.90;;;;;;5022995;28;20431;-71
2023/12/03 04:43:33;;;;;;;11.57;9.38;;;0.30;99.90;;;;;;5018052;28;20497;-72
2023/12/03 04:46:04;;;;;;;11.40;9.10;;;0.30;99.90;;;;;;5022462;28;20438;-72
2023/12/03 04:48:31;;;;;;;11.93;8.98;;;0.20;99.90;;;;;;5024884;28;20426;-71
2023/12/03 04:50:58;;;;;;;11.05;9.55;;;0.20;99.90;;;;;;5023176;28;20430;-71
2023/12/03 04:53:25;;;;;;;11.90;8.93;;;0.20;99.90;;;;;;5023038;28;20490;-71
2023/12/03 04:55:51;;;;;;;11.18;9.00;;;0.10;99.90;;;;;;5021072;28;20438;-71
2023/12/03 04:58:19;;;;;;;10.23;8.80;;;0.10;99.90;;;;;;5022785;28;20419;-72
2023/12/03 05:00:46;;;;;;;11.23;8.73;;;0.00;99.90;;;;;;5023653;28;20438;-72
2023/12/03 05:03:13;;;;;;;11.57;9.80;;;-0.10;99.90;;;;;;5027885;28;20798;-72
2023/12/03 05:05:40;;;;;;;10.93;9.07;;;-0.10;99.90;;;;;;5027275;28;20765;-71
2023/12/03 05:08:07;;;;;;;11.55;9.00;;;-0.20;99.90;;;;;;5027903;28;20908;-72
2023/12/03 05:10:33;;;;;;;11.80;8.95;;;-0.10;99.90;;;;;;5022863;28;20449;-71
2023/12/03 05:13:00;;;;;;;11.97;9.13;;;-0.10;99.90;;;;;;5022874;28;20506;-72
2023/12/03 05:15:28;;;;;;;12.50;9.68;;;-0.10;99.90;;;;;;5023087;28;20426;-72
2023/12/03 05:17:55;;;;;;;11.15;9.38;;;-0.10;99.90;;;;;;5022048;28;20411;-71
2023/12/03 05:20:22;;;;;;;10.68;8.80;;;-0.10;99.90;;;;;;5021938;28;20422;-71
2023/12/03 05:22:51;;;;;;;10.15;8.85;;;-0.10;99.90;;;;;;5022359;28;20890;-72
2023/12/03 05:25:18;;;;;;;11.27;8.80;;;0.00;99.90;;;;;;5020385;28;20435;-72
2023/12/03 05:27:44;;;;;;;10.73;8.70;;;0.00;99.90;;;;;;5022447;28;20506;-72
2023/12/03 05:30:13;;;;;;;11.57;9.13;;;0.00;99.90;;;;;;5022284;28;20422;-71
2023/12/03 05:32:42;;;;;;;11.40;9.15;;;0.00;99.90;;;;;;5023310;28;20515;-72
2023/12/03 05:35:09;;;;;;;11.68;9.35;;;0.00;99.90;;;;;;5022580;28;20537;-72
2023/12/03 05:37:36;;;;;;;10.43;8.70;;;0.00;99.90;;;;;;5022091;28;20406;-72
2023/12/03 05:40:04;;;;;;;10.40;8.48;;;-0.10;99.90;;;;;;5021534;28;20423;-71
2023/12/03 05:42:31;;;;;;;10.75;8.57;;;0.00;99.90;;;;;;5027842;28;20430;-71
2023/12/03 05:44:57;;;;;;;10.10;7.80;;;0.00;99.90;;;;;;5028894;28;20411;-71
2023/12/03 05:47:24;;;;;;;10.30;7.95;;;-0.10;99.90;;;;;;5030349;28;20866;-71
2023/12/03 05:49:53;;;;;;;9.10;7.63;;;-0.10;99.90;;;;;;5027594;28;20538;-72
2023/12/03 05:52:19;;;;;;;10.45;8.43;;;-0.10;99.90;;;;;;5021533;28;20419;-72
2023/12/03 05:54:46;;;;;;;8.88;7.60;;;-0.10;99.90;;;;;;5021994;28;20449;-72
2023/12/03 05:57:13;;;;;;;10.00;7.63;;;-0.10;99.90;;;;;;5022249;28;20437;-72
2023/12/03 05:59:39;;;;;;;10.85;8.27;;;-0.10;99.90;;;;;;5021707;28;20529;-72
2023/12/03 06:02:06;;;;;;;10.52;8.27;;;-0.10;99.90;;;;;;5021707;28;20453;-71
2023/12/03 06:04:33;;;;;;;9.50;7.80;;;-0.10;99.90;;;;;;5022064;28;20415;-71
2023/12/03 06:07:01;;;;;;;10.10;8.60;;;-0.10;99.90;;;;;;5022052;28;20419;-72
2023/12/03 06:09:28;;;;;;;10.05;7.90;;;-0.10;99.90;;;;;;5021175;28;20538;-72
2023/12/03 06:11:54;;;;;;;11.07;8.73;;;-0.10;99.90;;;;;;5021462;28;20431;-71
2023/12/03 06:14:21;;;;;;;9.63;8.60;;;-0.10;99.90;;;;;;5024525;28;20418;-71
2023/12/03 06:16:48;;;;;;;10.27;8.75;;;-0.10;99.90;;;;;;5026902;28;20415;-72
2023/12/03 06:19:15;;;;;;;10.95;8.90;;;-0.10;99.90;;;;;;5022491;28;20437;-72
2023/12/03 06:21:41;;;;;;;11.20;8.43;;;-0.10;99.90;;;;;;5021965;28;20879;-72
2023/12/03 06:24:09;;;;;;;13.80;9.82;;;-0.10;99.90;;;;;;5021252;28;20431;-71
2023/12/03 06:26:36;;;;;;;11.45;8.18;;;-0.10;99.90;;;;;;5020064;28;20443;-72
2023/12/03 06:29:03;;;;;;;11.80;8.90;;;-0.10;99.90;;;;;;5023895;28;20753;-71
2023/12/03 06:31:29;;;;;;;9.80;8.57;;;-0.20;99.90;;;;;;5027353;28;20422;-72
2023/12/03 06:33:56;;;;;;;10.25;8.65;;;-0.20;99.90;;;;;;5027182;28;20762;-71
2023/12/03 06:36:23;;;;;;;10.45;8.60;;;-0.20;99.90;;;;;;5025634;28;20453;-71
2023/12/03 06:38:49;;;;;;;10.50;8.70;;;-0.10;99.90;;;;;;5025154;28;20948;-71
2023/12/03 06:41:18;;;;;;;10.85;8.70;;;-0.10;99.90;;;;;;5026301;28;20430;-71
2023/12/03 06:43:44;;;;;;;11.48;9.30;;;-0.10;99.90;;;;;;5025426;28;20708;-71
2023/12/03 06:46:11;;;;;;;11.20;8.60;;;-0.10;99.90;;;;;;5024969;28;20434;-71
2023/12/03 06:48:40;;;;;;;12.43;9.50;;;0.00;99.90;;;;;;5025507;28;20477;-71
2023/12/03 06:51:09;;;;;;;11.40;8.50;;;0.00;99.90;;;;;;5026004;28;20434;-71
2023/12/03 06:53:35;;;;;;;11.00;8.68;;;0.00;99.90;;;;;;5025077;28;20446;-71
2023/12/03 06:56:02;;;;;;;11.52;8.93;;;0.00;99.90;;;;;;5025215;28;20435;-71
2023/12/03 06:58:30;;;;;;;11.35;8.52;;;0.00;99.90;;;;;;5024880;28;20418;-71
2023/12/03 07:00:57;;;;;;;11.13;9.00;;;0.10;99.90;;;;;;5026706;28;20446;-71
2023/12/03 07:03:24;;;;;;;12.30;8.88;;;0.10;99.90;;;;;;5026166;28;20912;-71
2023/12/03 07:05:50;;;;;;;11.10;9.13;;;0.10;99.90;;;;;;5025006;28;20450;-71
2023/12/03 07:08:17;;;;;;;10.87;8.57;;;0.10;99.90;;;;;;5023984;28;20439;-71
2023/12/03 07:10:44;;;;;;;11.40;9.02;;;0.10;99.90;;;;;;5026288;28;20415;-71
2023/12/03 07:13:11;;;;;;;12.00;8.55;;;0.10;99.90;;;;;;5026658;28;20399;-71
2023/12/03 07:15:39;;;;;;;11.75;9.15;;;0.10;99.90;;;;;;5024959;28;20838;-71
2023/12/03 07:18:06;;;;;;;11.10;9.05;;;0.10;99.90;;;;;;5025268;28;20415;-72
2023/12/03 07:20:32;;;;;;;10.80;8.90;;;0.10;99.90;;;;;;5031515;28;20437;-71
2023/12/03 07:22:59;;;;;;;11.57;9.00;;;0.10;99.90;;;;;;5033428;28;20435;-71
2023/12/03 07:25:26;;;;;;;11.23;9.15;;;0.20;99.90;;;;;;5032585;28;20750;-71
2023/12/03 07:27:53;;;;;;;10.10;8.63;;;0.20;99.90;;;;;;5029657;28;20415;-71
2023/12/03 07:30:19;;;;;;;9.95;8.18;;;0.20;99.90;;;;;;5027476;28;21061;-71
2023/12/03 07:32:47;;;;;;;9.55;8.40;;;0.20;99.90;;;;;;5028045;28;20412;-71
2023/12/03 07:35:14;;;;;;;10.37;8.90;;;0.20;99.90;;;;;;5028905;28;20432;-71
2023/12/03 07:37:40;;;;;;;11.98;9.02;;;0.20;99.90;;;;;;5028413;28;20446;-71
2023/12/03 07:40:09;;;;;;;10.95;8.10;;;0.20;99.90;;;;;;5026324;28;20936;-72
2023/12/03 07:42:36;;;;;;;10.30;8.77;;;0.20;99.90;;;;;;5026668;28;20983;-71
2023/12/03 07:45:02;;;;;;;11.50;8.70;;;0.20;99.90;;;;;;5027197;28;20423;-71
2023/12/03 07:47:29;;;;;;;10.60;8.50;;;0.20;99.90;;;;;;5025472;28;20439;-71
2023/12/03 07:49:57;;;;;;;12.00;9.05;;;0.10;99.90;;;;;;5026917;28;20506;-71
2023/12/03 07:52:24;;;;;;;10.35;8.63;;;0.10;99.90;;;;;;5025891;28;20766;-73
2023/12/03 07:54:51;;;;;;;11.25;9.07;;;0.10;99.90;;;;;;5022969;28;20713;-73
2023/12/03 07:57:18;;;;;;;10.83;8.87;;;0.10;99.90;;;;;;5026036;28;20443;-72
2023/12/03 07:59:44;;;;;;;12.07;9.15;;;0.10;99.90;;;;;;5025396;28;20437;-73
2023/12/03 08:02:11;;;;;;;11.40;8.75;;;0.10;99.90;;;;;;5025453;28;20484;-72
2023/12/03 08:04:38;;;;;;;10.30;8.60;;;0.10;99.90;;;;;;5016977;28;20526;-71
2023/12/03 08:07:06;;;;;;;11.82;8.95;;;0.20;99.90;;;;;;5020300;28;20439;-70
2023/12/03 08:09:33;;;;;;;11.13;8.85;;;0.20;99.90;;;;;;5024758;28;20901;-70
2023/12/03 08:12:00;;;;;;;12.88;9.20;;;0.30;99.90;;;;;;5024255;28;20411;-70
2023/12/03 08:14:26;;;;;;;12.23;9.63;;;0.30;99.90;;;;;;5024614;28;20430;-69
2023/12/03 08:16:53;;;;;;;12.10;8.80;;;0.40;99.90;;;;;;5022637;28;20439;-70
2023/12/03 08:19:20;;;;;;;12.98;9.30;;;0.40;99.90;;;;;;5025573;28;20415;-70
2023/12/03 08:21:47;;;;;;;12.18;8.93;;;0.50;99.90;;;;;;5024210;28;20423;-70
2023/12/03 08:24:15;;;;;;;10.63;8.55;;;0.50;99.90;;;;;;5023508;28;20427;-70
2023/12/03 08:26:42;;;;;;;12.52;9.65;;;0.50;99.90;;;;;;5024463;28;20441;-70
2023/12/03 08:29:09;;;;;;;13.20;9.10;;;0.50;99.90;;;;;;5025272;28;20422;-70
2023/12/03 08:31:36;;;;;;;11.60;9.52;;;0.60;99.90;;;;;;5024459;28;20517;-70
2023/12/03 08:34:03;;;;;;;10.88;8.80;;;0.70;99.90;;;;;;5026314;28;20429;-70
2023/12/03 08:36:31;;;;;;;12.05;9.50;;;0.80;99.90;;;;;;5024855;28;20419;-69
2023/12/03 08:38:57;;;;;;;12.05;8.98;;;1.00;99.90;;;;;;5028395;28;20495;-69
2023/12/03 08:41:26;;;;;;;12.18;9.30;;;1.10;99.90;;;;;;5030274;28;20478;-69
2023/12/03 08:43:52;;;;;;;12.52;9.10;;;1.10;99.90;;;;;;5025899;28;22289;-69
2023/12/03 08:46:20;;;;;;;11.38;8.73;;;1.00;99.90;;;;;;5028600;28;20434;-70
2023/12/03 08:48:47;;;;;;;12.30;9.15;;;0.90;99.90;;;;;;5025638;28;20482;-70
2023/12/03 08:51:14;;;;;;;10.70;8.60;;;0.90;99.90;;;;;;5019789;28;20897;-69
2023/12/03 08:53:41;;;;;;;11.95;8.98;;;0.80;99.90;;;;;;5022051;28;20530;-69
2023/12/03 08:56:11;;;;;;;11.73;8.88;;;0.70;99.90;;;;;;5024333;28;20423;-70
2023/12/03 08:58:40;;;;;;;11.75;9.07;;;0.60;99.90;;;;;;5024786;28;20506;-70
2023/12/03 09:01:07;;;;;;;12.73;9.52;;;0.50;99.90;;;;;;5025098;28;20415;-69
2023/12/03 09:03:34;;;;;;;12.20;9.40;;;0.50;99.90;;;;;;5024084;28;20479;-69
2023/12/03 09:06:01;;;;;;;12.63;9.30;;;0.50;99.90;;;;;;5019306;28;20487;-69
2023/12/03 09:08:28;;;;;;;11.82;9.02;;;0.60;99.90;;;;;;5022741;28;20430;-70
2023/12/03 09:10:54;;;;;;;12.30;9.10;;;0.70;99.90;;;;;;5024780;28;21149;-69
2023/12/03 09:13:21;;;;;;;11.20;8.80;;;0.90;99.90;;;;;;5023070;28;20422;-69
2023/12/03 09:15:50;;;;;;;12.05;9.05;;;1.10;99.90;;;;;;5022242;28;20427;-70
2023/12/03 09:18:17;;;;;;;12.48;9.00;;;1.20;99.90;;;;;;5024887;28;20517;-69
2023/12/03 09:20:44;;;;;;;12.17;8.70;;;1.40;99.90;;;;;;5018455;28;20485;-69
2023/12/03 09:23:11;;;;;;;11.90;8.13;;;1.50;99.90;;;;;;5022523;28;20426;-70
2023/12/03 09:25:38;;;;;;;11.88;9.70;;;1.60;99.90;;;;;;5017010;28;20443;-70
2023/12/03 09:28:05;;;;;;;9.40;8.00;;;1.70;99.90;;;;;;5018092;28;20967;-68
2023/12/03 09:30:32;;;;;;;10.70;8.55;;;1.80;99.90;;;;;;5020900;28;20433;-69
2023/12/03 09:33:00;;;;;;;11.82;9.00;;;1.90;99.90;;;;;;5015092;28;20407;-69
2023/12/03 09:35:29;;;;;;;11.95;8.68;;;1.80;99.90;;;;;;5017246;28;20435;-68
2023/12/03 09:37:56;;;;;;;12.55;9.05;;;1.90;99.90;;;;;;5021338;28;20415;-68
2023/12/03 09:40:22;;;;;;;11.10;8.93;;;1.80;99.90;;;;;;5019173;28;20552;-69
2023/12/03 09:42:50;;;;;;;11.40;8.88;;;1.90;99.90;;;;;;5020006;28;20428;-69
2023/12/03 09:45:19;;;;;;;12.75;9.60;;;2.00;99.40;;;;;;5025392;28;20759;-69
2023/12/03 09:47:49;;;;;;;12.52;9.38;;;2.10;99.40;;;;;;5020962;28;20477;-68
2023/12/03 09:50:18;;;;;;;11.47;8.90;;;2.30;98.70;;;;;;5021710;28;20435;-68
2023/12/03 09:52:49;;;;;;;12.40;9.65;;;2.40;98.50;;;;;;5019085;28;20414;-69
2023/12/03 09:55:18;;;;;;;12.63;9.40;;;2.40;98.10;;;;;;5014813;28;20448;-69
2023/12/03 09:57:47;;;;;;;12.48;9.75;;;2.50;97.70;;;;;;5017324;28;20469;-69
2023/12/03 10:00:15;;;;;;;10.82;8.60;;;2.50;97.60;;;;;;5018099;28;20498;-69
2023/12/03 10:02:42;;;;;;;12.30;9.80;;;2.40;97.50;;;;;;5016516;28;20454;-69
2023/12/03 10:05:09;;;;;;;13.02;10.10;;;2.30;97.70;;;;;;5018969;28;20466;-69
2023/12/03 10:07:39;;;;;;;11.80;9.37;;;2.30;98.10;;;;;;5022791;28;20414;-68
2023/12/03 10:10:08;;;;;;;13.07;10.00;;;2.30;97.70;;;;;;5024617;28;20448;-68
2023/12/03 10:12:41;;;;;;;13.10;10.87;;;2.20;97.80;;;;;;5027307;28;20509;-70
2023/12/03 10:15:10;;;;;;;12.70;9.95;;;2.10;98.10;;;;;;5022071;28;20828;-69
2023/12/03 10:17:37;;;;;;;12.80;10.68;;;2.10;98.40;;;;;;5039463;28;20430;-69
2023/12/03 10:20:30;;;;;;;12.50;10.38;;;2.10;99.00;;;;;;5028377;28;20518;-69
2023/12/03 10:23:00;;;;;;;12.27;10.27;;;2.10;98.80;;;;;;4981489;28;20536;-69
2023/12/03 10:25:28;;;;;;;13.73;10.85;;;2.10;99.10;;;;;;5025505;28;20477;-69
2023/12/03 10:27:56;;;;;;;13.32;10.63;;;2.10;98.70;;;;;;5026566;28;20431;-69
2023/12/03 10:30:23;;;;;;;12.85;10.30;;;2.00;98.60;;;;;;5029437;28;20786;-69
2023/12/03 10:32:50;;;;;;;13.35;9.90;;;2.00;98.80;;;;;;5026891;28;20483;-69
2023/12/03 10:35:20;;;;;;;13.93;10.85;;;1.90;98.80;;;;;;5026590;28;20431;-69
2023/12/03 10:37:46;;;;;;;12.13;9.98;;;2.00;99.40;;;;;;5027920;28;20433;-69
2023/12/03 10:40:15;;;;;;;13.70;10.73;;;2.10;99.20;;;;;;5026580;28;20531;-69
2023/12/03 10:42:41;;;;;;;14.85;10.80;;;2.20;99.30;;;;;;5027449;28;20445;-69
2023/12/03 10:45:10;;;;;;;12.57;10.10;;;2.20;99.10;;;;;;5023882;28;20436;-68
2023/12/03 10:47:37;;;;;;;12.85;10.48;;;2.40;98.80;;;;;;5026384;28;20415;-69
2023/12/03 10:50:05;;;;;;;13.57;10.60;;;2.50;98.60;;;;;;5027839;28;20477;-69
2023/12/03 10:52:33;;;;;;;13.18;10.35;;;2.50;98.00;;;;;;5027436;28;20443;-69
2023/12/03 10:55:00;;;;;;;14.23;11.52;;;2.40;97.90;;;;;;5023725;28;20456;-69
2023/12/03 10:57:30;;;;;;;13.15;10.52;;;2.50;98.40;;;;;;5025567;28;20434;-69
2023/12/03 11:00:05;;;;;;;12.85;10.38;;;2.60;98.20;;;;;;5025887;28;20891;-69
2023/12/03 11:02:42;;;;;;;14.10;10.73;;;2.60;98.20;;;;;;5021233;28;20411;-69
2023/12/03 11:05:15;;;;;;;14.67;11.10;;;2.90;98.50;;;;;;5023792;28;20459;-68
2023/12/03 11:07:42;;;;;;;13.20;10.77;;;3.10;97.80;;;;;;5024963;28;20448;-68
2023/12/03 11:10:11;;;;;;;12.98;10.40;;;3.20;97.20;;;;;;5024210;28;20457;-69
2023/12/03 11:12:39;;;;;;;13.98;11.15;;;3.20;97.10;;;;;;5025810;28;20467;-69
2023/12/03 11:15:08;;;;;;;13.90;11.20;;;3.00;97.20;;;;;;5026808;28;20869;-69
2023/12/03 11:17:40;;;;;;;12.17;10.33;;;3.00;97.40;;;;;;5021922;28;20600;-69
2023/12/03 11:20:10;;;;;;;14.73;11.45;;;2.90;97.50;;;;;;5027018;28;20498;-69
2023/12/03 11:22:49;;;;;;;14.00;11.80;;;2.80;97.60;;;;;;5025686;28;20415;-69
2023/12/03 11:25:20;;;;;;;13.00;10.50;;;2.80;97.80;;;;;;5025827;28;20442;-69
2023/12/03 11:27:48;;;;;;;14.10;11.32;;;2.90;98.00;;;;;;5019603;28;20423;-69
2023/12/03 11:30:15;;;;;;;14.00;11.48;;;2.90;97.40;;;;;;5030994;28;20510;-69
2023/12/03 11:32:42;;;;;;;15.63;11.90;;;3.00;97.60;;;;;;5025494;28;20471;-69
2023/12/03 11:35:14;;;;;;;12.13;10.20;;;3.00;97.90;;;;;;5034348;28;20419;-68
2023/12/03 11:37:43;;;;;;;12.27;10.27;;;3.20;97.10;;;;;;5027565;28;20412;-69
2023/12/03 11:40:12;;;;;;;11.87;9.67;;;3.30;96.10;;;;;;5024606;28;20837;-68
2023/12/03 11:42:45;;;;;;;12.05;9.38;;;3.40;96.40;;;;;;5025109;28;20438;-69
2023/12/03 11:45:25;;;;;;;11.85;8.73;;;3.60;95.60;;;;;;5023951;28;20419;-69
2023/12/03 11:48:08;;;;;;;11.55;9.80;;;3.70;94.80;;;;;;5025273;28;20435;-69
2023/12/03 11:50:35;;;;;;;12.00;9.87;;;3.60;94.70;;;;;;5023451;28;20498;-69
2023/12/03 11:53:03;;;;;;;11.73;9.15;;;3.50;94.60;;;;;;5023978;28;20403;-68
2023/12/03 11:55:33;;;;;;;12.10;9.80;;;3.50;95.00;;;;;;5026200;28;20566;-68
2023/12/03 11:58:00;;;;;;;11.45;9.63;;;3.50;94.70;;;;;;5024231;28;20407;-63
2023/12/03 12:00:28;;;;;;;11.63;8.95;;;3.50;96.00;;;;;;5024399;28;20742;-63
2023/12/03 12:02:55;;;;;;;10.65;9.30;;;3.50;95.00;;;;;;5020552;28;20774;-62
2023/12/03 12:05:21;;;;;;;10.70;9.20;;;3.40;94.70;;;;;;5022251;28;20430;-71
2023/12/03 12:07:57;;;;;;;9.90;8.85;;;3.20;94.50;;;;;;5026759;28;20434;-70
2023/12/03 12:10:24;;;;;;;10.03;8.27;;;3.00;95.30;;;;;;5023930;28;20874;-71
2023/12/03 12:12:51;;;;;;;11.30;8.73;;;2.90;95.00;;;;;;5017124;28;20431;-70
2023/12/03 12:15:18;;;;;;;9.77;8.55;;;2.80;95.00;;;;;;5029270;28;20759;-70
2023/12/03 12:17:46;;;;;;;11.50;9.00;;;2.70;95.30;;;;;;5030772;28;20743;-70
2023/12/03 12:20:21;;;;;;;9.82;8.82;;;2.70;95.70;;;;;;5028433;28;20419;-70
2023/12/03 12:22:48;;;;;;;9.68;8.68;;;2.80;95.70;;;;;;5022175;28;20430;-63
2023/12/03 12:25:15;;;;;;;10.20;9.07;;;3.00;95.90;;;;;;5023499;28;20748;-71
2023/12/03 12:27:42;;;;;;;9.70;7.70;;;3.10;95.20;;;;;;5019510;28;20459;-72
2023/12/03 12:30:09;;;;;;;9.23;8.20;;;3.30;94.70;;;;;;5015469;28;20879;-71
2023/12/03 12:32:36;;;;;;;10.02;8.35;;;3.50;93.90;;;;;;5022090;28;20434;-71
2023/12/03 12:35:06;;;;;;;10.30;8.23;;;3.70;92.80;;;;;;5023845;28;20427;-71
2023/12/03 12:37:33;;;;;;;8.55;7.10;;;3.90;92.10;;;;;;5024803;28;20498;-71
2023/12/03 12:40:07;;;;;;;7.55;6.75;;;4.20;91.20;;;;;;5022700;28;20870;-71
2023/12/03 12:42:34;;;;;;;9.10;7.40;;;4.60;89.60;;;;;;5024517;28;20893;-71